Time;durP1;ratioP1;P1;durP2;ratioP2;P2;SDS_P1;SDS_P2;PMS_P1;PMS_P2;Temp;Humidity;BMP_temperature;BMP_pressure;BME280_temperature;BME280_humidity;BME280_pressure;Samples;Min_cycle;Max_cycle;Signal;HPM_P1;HPM_P2
2021/08/12 00:02:11;;;;;;;1.50;0.65;;;;;;;16.33;57.17;100903.66;3558237;40;20060;-79
2021/08/12 00:04:40;;;;;;;1.90;0.70;;;;;;;16.29;57.95;100904.72;3551636;40;20100;-78
2021/08/12 00:07:09;;;;;;;2.00;0.82;;;;;;;16.26;58.33;100903.06;3582116;40;20398;-79
2021/08/12 00:09:36;;;;;;;2.10;0.73;;;;;;;16.19;57.84;100898.97;3579001;40;21493;-79
2021/08/12 00:12:05;;;;;;;1.48;0.52;;;;;;;16.17;57.83;100897.31;3579028;40;20054;-79
2021/08/12 00:14:32;;;;;;;1.65;0.40;;;;;;;16.17;58.75;100900.84;3589145;39;20111;-79
2021/08/12 00:17:03;;;;;;;0.93;0.40;;;;;;;16.12;57.71;100892.28;3573186;40;20053;-79
2021/08/12 00:19:30;;;;;;;2.72;0.52;;;;;;;15.97;58.84;100874.47;3585963;40;20844;-79
2021/08/12 00:21:58;;;;;;;1.00;0.50;;;;;;;16.00;59.17;100890.13;3553769;40;20107;-79
2021/08/12 00:24:26;;;;;;;;;;;;;;;16.08;57.13;100906.50;3569667;40;20163;-80
2021/08/12 00:26:57;;;;;;;4.82;0.68;;;;;;;16.05;58.42;100902.19;3564087;40;20415;-79
2021/08/12 00:29:29;;;;;;;2.42;0.70;;;;;;;16.02;57.91;100906.75;3592458;39;21503;-79
2021/08/12 00:31:56;;;;;;;1.13;0.60;;;;;;;15.98;59.18;100900.75;3564470;40;20044;-79
2021/08/12 00:34:23;;;;;;;1.20;0.40;;;;;;;15.96;58.82;100899.94;3548355;40;20695;-78
2021/08/12 00:36:58;;;;;;;1.65;0.30;;;;;;;15.96;58.00;100897.31;3553449;40;20052;-79
2021/08/12 00:39:25;;;;;;;2.63;0.60;;;;;;;15.82;58.27;100871.56;3557123;40;20146;-79
2021/08/12 00:41:53;;;;;;;2.38;0.60;;;;;;;15.83;58.92;100886.44;3555261;40;20061;-79
2021/08/12 00:44:21;;;;;;;3.13;0.68;;;;;;;15.85;59.14;100888.16;3542727;40;20393;-80
2021/08/12 00:46:53;;;;;;;3.05;0.70;;;;;;;15.87;58.45;100891.59;3549622;40;20852;-78
2021/08/12 00:49:22;;;;;;;1.13;0.47;;;;;;;15.83;59.09;100894.34;3575226;40;21199;-80
2021/08/12 00:51:53;;;;;;;1.30;0.50;;;;;;;15.77;59.30;100881.44;3538474;40;20457;-79
2021/08/12 00:54:22;;;;;;;0.65;0.40;;;;;;;15.73;59.27;100874.56;3552318;40;20554;-79
2021/08/12 00:56:49;;;;;;;2.50;0.70;;;;;;;15.60;59.71;100854.03;3572228;40;20055;-80
2021/08/12 00:59:24;;;;;;;0.93;0.50;;;;;;;15.73;58.97;100874.56;3576734;40;20918;-79
2021/08/12 01:01:51;;;;;;;1.17;0.50;;;;;;;15.73;59.18;100874.56;3546988;40;20052;-79
2021/08/12 01:04:18;;;;;;;0.75;0.38;;;;;;;15.71;59.93;100876.44;3578309;40;20060;-79
2021/08/12 01:06:53;;;;;;;2.22;0.63;;;;;;;15.72;59.89;100872.00;3555647;40;20061;-79
2021/08/12 01:09:46;;;;;;;1.45;0.22;;;;;;;15.74;59.04;100878.91;3558382;40;20049;-80
2021/08/12 01:12:23;;;;;;;2.13;0.28;;;;;;;15.73;59.94;100868.47;3560714;40;20056;-79
2021/08/12 01:15:01;;;;;;;0.85;0.40;;;;;;;15.67;60.02;100856.41;3535570;40;20056;-79
2021/08/12 01:17:45;;;;;;;1.52;0.30;;;;;;;15.68;59.25;100854.63;3542793;40;20057;-78
2021/08/12 01:20:39;;;;;;;1.65;0.40;;;;;;;15.71;59.49;100860.63;3566829;40;20047;-79
2021/08/12 01:23:16;;;;;;;0.65;0.40;;;;;;;15.67;59.76;100853.78;3550098;40;20039;-79
2021/08/12 01:25:46;;;;;;;0.20;0.20;;;;;;;15.65;59.71;100852.09;3574697;40;20048;-79
2021/08/12 01:28:20;;;;;;;2.03;0.45;;;;;;;15.65;59.69;100860.84;3545956;40;20041;-79
2021/08/12 01:31:18;;;;;;;2.10;0.52;;;;;;;15.64;58.78;100848.63;3569943;40;20797;-79
2021/08/12 01:34:04;;;;;;;1.33;0.30;;;;;;;15.62;58.74;100854.84;3556943;40;20092;-78
2021/08/12 01:36:40;;;;;;;2.50;0.75;;;;;;;15.58;59.34;100849.69;3561204;39;20069;-79
2021/08/12 01:39:13;;;;;;;1.02;0.38;;;;;;;15.53;59.36;100837.66;3541029;40;22094;-79
2021/08/12 01:41:46;;;;;;;0.75;0.25;;;;;;;15.52;59.51;100839.44;3541988;40;20114;-79
2021/08/12 01:44:18;;;;;;;1.92;0.50;;;;;;;15.52;59.05;100839.44;3499949;40;20127;-79
2021/08/12 01:46:50;;;;;;;1.10;0.60;;;;;;;15.51;58.80;100839.47;3515859;40;20049;-79
2021/08/12 01:49:19;;;;;;;1.85;0.55;;;;;;;15.50;59.96;100841.25;3549981;40;20085;-78
2021/08/12 01:51:49;;;;;;;0.88;0.30;;;;;;;15.50;60.28;100838.63;3574410;40;20054;-79
2021/08/12 01:54:18;;;;;;;1.48;0.52;;;;;;;15.45;60.01;100832.69;3561180;40;20056;-79
2021/08/12 01:56:50;;;;;;;2.40;0.57;;;;;;;15.50;60.04;100832.50;3561755;40;20044;-79
2021/08/12 01:59:18;;;;;;;2.00;0.47;;;;;;;15.46;60.58;100825.66;3545961;40;20048;-79
2021/08/12 02:01:47;;;;;;;2.38;0.50;;;;;;;15.49;60.46;100836.06;3564579;40;20030;-79
2021/08/12 02:04:18;;;;;;;3.83;0.30;;;;;;;15.49;60.82;100836.91;3548173;40;20044;-78
2021/08/12 02:06:48;;;;;;;1.83;0.63;;;;;;;15.42;59.91;100821.44;3531042;40;20056;-79
2021/08/12 02:09:26;;;;;;;2.28;0.43;;;;;;;15.45;59.21;100821.31;3544601;40;20106;-80
2021/08/12 02:11:53;;;;;;;1.42;0.55;;;;;;;15.42;59.39;100818.81;3531273;40;20033;-80
2021/08/12 02:14:22;;;;;;;2.13;0.60;;;;;;;15.45;59.43;100826.56;3537579;40;20045;-79
2021/08/12 02:16:49;;;;;;;2.80;0.80;;;;;;;15.34;59.84;100818.25;3530565;39;20043;-80
2021/08/12 02:19:18;;;;;;;2.05;0.80;;;;;;;15.36;60.02;100832.19;3562870;40;20041;-79
2021/08/12 02:21:53;;;;;;;1.90;0.52;;;;;;;15.34;59.67;100840.16;3540260;40;20060;-79
2021/08/12 02:24:30;;;;;;;4.32;0.63;;;;;;;15.31;59.63;100830.63;3547023;40;20052;-79
2021/08/12 02:27:06;;;;;;;2.20;0.70;;;;;;;15.27;59.77;100846.59;3555894;40;20128;-79
2021/08/12 02:29:38;;;;;;;2.30;0.77;;;;;;;15.26;59.93;100827.34;3529361;40;20344;-79
2021/08/12 02:32:20;;;;;;;5.55;0.85;;;;;;;15.25;59.33;100838.75;3542001;39;20084;-79
2021/08/12 02:34:50;;;;;;;3.35;0.68;;;;;;;15.20;60.66;100843.34;3546461;40;20043;-79
2021/08/12 02:37:19;;;;;;;0.80;0.57;;;;;;;15.13;60.87;100828.72;3557717;40;20055;-79
2021/08/12 02:39:53;;;;;;;4.15;0.80;;;;;;;15.15;60.63;100832.13;3565678;40;20044;-79
2021/08/12 02:42:21;;;;;;;3.03;0.70;;;;;;;15.14;61.07;100833.06;3558883;40;20059;-79
2021/08/12 02:44:51;;;;;;;;;;;;;;;15.18;59.20;100845.19;3541229;40;20061;-80
2021/08/12 02:47:20;;;;;;;2.47;0.47;;;;;;;15.13;61.03;100841.88;3557640;39;19932;-79
2021/08/12 02:49:52;;;;;;;2.25;0.50;;;;;;;15.09;61.26;100829.75;3551585;40;20044;-79
2021/08/12 02:52:20;;;;;;;1.08;0.30;;;;;;;15.10;61.40;100827.97;3571857;40;20048;-79
2021/08/12 02:54:50;;;;;;;2.45;0.50;;;;;;;15.02;61.71;100820.41;3526901;40;20523;-79
2021/08/12 02:57:18;;;;;;;1.67;0.45;;;;;;;15.10;61.90;100830.59;3559847;40;20377;-80
2021/08/12 02:59:49;;;;;;;3.47;0.77;;;;;;;15.09;61.81;100829.75;3576219;39;20756;-79
2021/08/12 03:02:20;;;;;;;4.38;1.02;;;;;;;15.08;62.09;100822.78;3582228;40;20084;-79
2021/08/12 03:04:47;;;;;;;3.55;0.80;;;;;;;15.04;62.79;100827.31;3555770;40;20036;-77
2021/08/12 03:07:16;;;;;;;3.22;0.50;;;;;;;15.06;62.49;100819.38;3569841;40;20033;-79
2021/08/12 03:09:48;;;;;;;2.45;0.40;;;;;;;15.08;62.15;100816.69;3520469;40;20394;-80
2021/08/12 03:12:24;;;;;;;3.55;0.55;;;;;;;15.08;61.52;100812.28;3528930;40;20045;-80
2021/08/12 03:14:52;;;;;;;1.70;0.63;;;;;;;15.06;62.24;100808.84;3525696;40;20036;-79
2021/08/12 03:17:20;;;;;;;7.85;1.00;;;;;;;14.97;62.20;100793.44;3551613;40;20775;-79
2021/08/12 03:19:48;;;;;;;2.10;0.47;;;;;;;15.04;62.24;100794.88;3540361;40;21324;-79
2021/08/12 03:22:16;;;;;;;1.83;0.50;;;;;;;15.02;62.26;100781.81;3557709;40;20025;-79
2021/08/12 03:24:46;;;;;;;4.57;0.45;;;;;;;14.98;62.11;100774.09;3549158;40;20103;-79
2021/08/12 03:27:17;;;;;;;3.88;0.60;;;;;;;15.05;62.08;100783.44;3493533;40;20104;-79
2021/08/12 03:29:46;;;;;;;0.95;0.20;;;;;;;14.99;62.25;100775.81;3503155;40;20060;-78
2021/08/12 03:32:14;;;;;;;4.28;0.50;;;;;;;15.02;62.38;100775.69;3556662;40;20110;-79
2021/08/12 03:34:44;;;;;;;0.63;0.28;;;;;;;14.99;62.33;100771.41;3497527;40;25765;-79
2021/08/12 03:37:14;;;;;;;3.70;0.50;;;;;;;15.03;62.09;100774.78;3536567;40;20058;-79
2021/08/12 03:40:08;;;;;;;1.27;0.35;;;;;;;15.10;61.10;100789.38;3556620;40;20824;-80
2021/08/12 03:42:34;;;;;;;1.75;0.30;;;;;;;15.05;62.53;100780.81;3555598;40;20045;-79
2021/08/12 03:45:01;;;;;;;2.97;0.50;;;;;;;15.08;61.98;100783.34;3534421;40;20077;-79
2021/08/12 03:47:32;;;;;;;2.35;0.77;;;;;;;15.04;61.99;100773.84;3533378;40;20057;-78
2021/08/12 03:50:05;;;;;;;2.63;0.45;;;;;;;15.07;62.03;100779.00;3551839;40;20045;-79
2021/08/12 03:52:43;;;;;;;1.58;0.55;;;;;;;15.09;61.32;100774.53;3548606;40;20450;-79
2021/08/12 03:55:11;;;;;;;2.50;0.40;;;;;;;15.07;62.45;100780.78;3566598;40;20820;-79
2021/08/12 03:57:44;;;;;;;0.93;0.32;;;;;;;15.08;62.16;100780.72;3537432;40;20084;-79
2021/08/12 04:00:18;;;;;;;4.03;0.70;;;;;;;15.07;61.96;100779.00;3532010;40;20449;-79
2021/08/12 04:02:49;;;;;;;1.90;0.30;;;;;;;15.05;62.35;100772.94;3513930;40;20063;-79
2021/08/12 04:05:18;;;;;;;3.53;0.50;;;;;;;15.03;62.18;100766.88;3532070;40;20060;-79
2021/08/12 04:07:47;;;;;;;5.20;0.80;;;;;;;15.04;62.22;100773.84;3535788;40;20532;-80
2021/08/12 04:10:21;;;;;;;0.60;0.28;;;;;;;15.02;62.40;100754.66;3534747;40;20074;-79
2021/08/12 04:12:55;;;;;;;2.22;0.40;;;;;;;15.05;62.29;100750.16;3551468;40;20496;-79
2021/08/12 04:15:22;;;;;;;6.40;0.82;;;;;;;15.05;62.46;100754.53;3551406;40;20066;-79
2021/08/12 04:17:54;;;;;;;3.33;0.63;;;;;;;15.06;62.28;100756.25;3553773;39;22320;-79
2021/08/12 04:20:21;;;;;;;3.47;0.60;;;;;;;15.02;62.39;100749.41;3583768;40;20048;-80
2021/08/12 04:22:48;;;;;;;5.65;0.70;;;;;;;14.94;62.30;100741.81;3536607;40;20068;-79
2021/08/12 04:25:18;;;;;;;4.72;0.70;;;;;;;15.01;62.49;100752.94;3538853;40;20090;-80
2021/08/12 04:28:10;;;;;;;5.32;0.70;;;;;;;15.09;61.30;100765.78;3553018;40;20086;-79
2021/08/12 04:30:43;;;;;;;1.40;0.30;;;;;;;15.04;62.14;100744.91;3549303;40;20462;-79
2021/08/12 04:33:16;;;;;;;5.25;0.52;;;;;;;15.04;62.00;100756.28;3522921;40;20073;-79
2021/08/12 04:35:44;;;;;;;2.00;0.57;;;;;;;14.97;61.86;100746.09;3549366;40;20065;-79
2021/08/12 04:38:14;;;;;;;3.22;0.50;;;;;;;15.02;61.57;100744.13;3508050;40;20041;-79
2021/08/12 04:40:43;;;;;;;3.28;0.65;;;;;;;15.01;61.88;100752.94;3552442;40;20076;-78
2021/08/12 04:43:11;;;;;;;2.25;0.50;;;;;;;14.98;61.52;100746.03;3537040;40;20662;-79
2021/08/12 04:45:39;;;;;;;3.90;0.38;;;;;;;15.03;61.62;100751.09;3514821;40;20070;-79
2021/08/12 04:48:16;;;;;;;2.13;0.32;;;;;;;15.07;61.45;100752.69;3548884;40;20116;-78
2021/08/12 04:50:48;;;;;;;1.43;0.40;;;;;;;15.02;61.33;100738.88;3522576;40;20889;-79
2021/08/12 04:53:22;;;;;;;2.85;0.50;;;;;;;15.05;60.76;100739.63;3536572;40;20057;-79
2021/08/12 04:55:49;;;;;;;1.75;0.47;;;;;;;15.00;60.65;100738.06;3498370;40;20060;-79
2021/08/12 04:58:41;;;;;;;2.42;0.55;;;;;;;15.05;60.52;100738.75;3506506;40;20045;-79
2021/08/12 05:01:11;;;;;;;1.88;0.25;;;;;;;15.02;60.66;100746.78;3520728;40;20054;-80
2021/08/12 05:03:38;;;;;;;0.93;0.30;;;;;;;14.93;60.20;100732.22;3510373;40;20093;-78
2021/08/12 05:06:12;;;;;;;4.50;0.80;;;;;;;15.00;59.98;100730.19;3534187;40;20386;-80
2021/08/12 05:08:39;;;;;;;4.97;0.52;;;;;;;14.93;60.50;100728.72;3541987;40;20085;-79
2021/08/12 05:11:08;;;;;;;3.25;0.73;;;;;;;14.99;59.94;100739.00;3552757;40;20038;-79
2021/08/12 05:13:37;;;;;;;3.42;0.40;;;;;;;14.89;60.13;100719.25;3530343;40;20049;-79
2021/08/12 05:16:11;;;;;;;3.92;0.60;;;;;;;14.99;59.77;100746.88;3533770;40;20095;-79
2021/08/12 05:18:40;;;;;;;5.18;0.55;;;;;;;14.95;59.64;100743.53;3546281;40;20062;-79
2021/08/12 05:21:07;;;;;;;1.77;0.43;;;;;;;14.99;59.20;100744.25;3546313;40;20444;-80
2021/08/12 05:23:36;;;;;;;3.22;0.38;;;;;;;14.99;60.06;100744.25;3520085;40;20058;-79
2021/08/12 05:26:04;;;;;;;1.10;0.50;;;;;;;15.01;59.72;100743.28;3536308;40;20106;-79
2021/08/12 05:28:32;;;;;;;1.60;0.50;;;;;;;15.00;60.08;100740.69;3520873;40;20045;-79
2021/08/12 05:31:03;;;;;;;3.33;0.73;;;;;;;15.05;59.92;100736.09;3528896;40;20041;-79
2021/08/12 05:33:34;;;;;;;1.10;0.40;;;;;;;15.07;59.95;100733.44;3542386;40;20108;-79
2021/08/12 05:36:06;;;;;;;3.08;0.40;;;;;;;15.03;60.13;100719.56;3547922;40;20058;-79
2021/08/12 05:38:35;;;;;;;2.15;0.70;;;;;;;15.03;60.05;100724.81;3528014;40;20107;-80
2021/08/12 05:41:04;;;;;;;1.88;0.45;;;;;;;15.08;60.27;100730.75;3516925;40;20590;-79
2021/08/12 05:43:31;;;;;;;0.52;0.25;;;;;;;15.05;60.55;100712.44;3513217;40;20093;-79
2021/08/12 05:46:02;;;;;;;1.52;0.35;;;;;;;15.10;60.48;100723.63;3563738;40;20017;-79
2021/08/12 05:48:29;;;;;;;2.70;0.52;;;;;;;14.98;60.78;100700.47;3530318;40;20060;-79
2021/08/12 05:50:58;;;;;;;5.43;1.03;;;;;;;15.14;60.78;100727.84;3556593;40;20129;-79
2021/08/12 05:53:30;;;;;;;3.90;0.45;;;;;;;15.11;61.24;100716.63;3539706;40;20327;-79
2021/08/12 05:55:57;;;;;;;1.80;0.30;;;;;;;15.18;61.38;100712.81;3551613;40;20045;-79
2021/08/12 05:58:26;;;;;;;0.75;0.20;;;;;;;15.21;61.61;100705.66;3569536;40;20052;-78
2021/08/12 06:00:52;;;;;;;2.53;0.60;;;;;;;15.18;61.43;100703.13;3545439;40;20147;-79
2021/08/12 06:03:21;;;;;;;2.90;0.60;;;;;;;15.20;61.75;100698.66;3586294;40;20520;-79
2021/08/12 06:05:57;;;;;;;3.97;0.50;;;;;;;15.22;61.36;100693.34;3565575;40;20090;-79
2021/08/12 06:08:28;;;;;;;1.65;0.52;;;;;;;15.27;61.72;100702.75;3524307;40;20044;-79
2021/08/12 06:11:02;;;;;;;2.45;0.40;;;;;;;15.28;61.54;100701.81;3575212;40;20037;-79
2021/08/12 06:13:29;;;;;;;2.92;0.35;;;;;;;15.26;61.89;100701.06;3548800;40;20705;-80
2021/08/12 06:15:59;;;;;;;1.95;0.30;;;;;;;15.31;61.85;100704.34;3555212;40;20071;-79
2021/08/12 06:18:30;;;;;;;5.22;0.40;;;;;;;15.32;61.56;100695.53;3533740;40;20057;-79
2021/08/12 06:20:59;;;;;;;4.57;0.70;;;;;;;15.29;61.55;100690.38;3574116;40;20061;-80
2021/08/12 06:23:26;;;;;;;3.58;0.55;;;;;;;15.26;61.74;100687.03;3571524;40;20060;-79
2021/08/12 06:25:56;;;;;;;1.42;0.40;;;;;;;15.35;62.01;100699.78;3587211;40;20181;-79
2021/08/12 06:28:25;;;;;;;2.78;0.50;;;;;;;15.37;62.09;100707.63;3553758;40;20075;-79
2021/08/12 06:30:55;;;;;;;1.45;0.38;;;;;;;15.34;62.10;100698.06;3542832;40;20095;-79
2021/08/12 06:33:23;;;;;;;2.20;0.47;;;;;;;15.34;62.49;100697.22;3533009;40;20052;-79
2021/08/12 06:39:16;;;;;;;0.20;0.20;;;;;;;15.40;61.84;100696.97;2647151;53;20418;31
2021/08/12 06:41:45;;;;;;;2.33;0.63;;;;;;;15.37;62.60;100691.84;2608211;54;20097;31
2021/08/12 06:44:21;;;;;;;3.00;0.50;;;;;;;15.44;61.95;100704.66;2626798;36;20922;31
2021/08/12 06:46:49;;;;;;;0.85;0.30;;;;;;;15.35;62.22;100689.25;2626714;36;20030;31
2021/08/12 06:49:20;;;;;;;1.30;0.35;;;;;;;15.40;61.77;100695.19;2626868;36;20062;31
2021/08/12 06:51:50;;;;;;;4.53;0.70;;;;;;;15.35;61.71;100672.63;2626708;36;20026;31
2021/08/12 06:54:21;;;;;;;1.80;0.65;;;;;;;15.44;61.84;100677.50;2626461;36;20026;31
2021/08/12 06:56:49;;;;;;;4.68;0.73;;;;;;;15.51;61.63;100685.06;2626882;36;20956;31
2021/08/12 06:59:19;;;;;;;2.85;0.40;;;;;;;15.56;61.74;100683.09;2608162;54;20046;31
2021/08/12 07:01:49;;;;;;;2.40;0.38;;;;;;;15.53;61.88;100661.31;2626790;36;20940;31
2021/08/12 07:04:21;;;;;;;1.60;0.50;;;;;;;15.73;61.37;100689.41;2626525;36;22419;31
2021/08/12 07:06:52;;;;;;;1.00;0.45;;;;;;;15.72;60.94;100678.03;2630965;36;20342;31
2021/08/12 07:09:21;;;;;;;2.38;0.70;;;;;;;15.72;60.85;100662.25;2627428;36;20022;31
2021/08/12 07:11:52;;;;;;;6.55;0.88;;;;;;;15.89;60.54;100673.78;2607882;46;20042;31
2021/08/12 07:14:24;;;;;;;1.98;0.68;;;;;;;15.83;59.72;100656.50;2628126;36;20070;31
2021/08/12 07:16:54;;;;;;;3.58;0.70;;;;;;;15.95;59.42;100666.47;2626482;36;20014;31
2021/08/12 07:19:26;;;;;;;5.15;0.60;;;;;;;15.95;59.44;100652.44;2627139;36;20030;31
2021/08/12 07:21:55;;;;;;;3.50;0.68;;;;;;;16.04;59.58;100657.28;2632691;36;20077;31
2021/08/12 07:24:25;;;;;;;2.38;0.70;;;;;;;16.08;58.92;100646.53;2609985;54;20042;31
2021/08/12 07:29:51;;;;;;;2.83;0.60;;;;;;;16.30;59.01;100638.47;2621416;54;20081;31
2021/08/12 07:32:20;;;;;;;3.72;0.80;;;;;;;16.52;59.02;100658.53;2653396;36;20050;-78
2021/08/12 07:34:49;;;;;;;5.25;0.70;;;;;;;16.59;59.18;100671.38;2633470;46;20006;31
2021/08/12 07:37:21;;;;;;;3.13;0.70;;;;;;;16.77;58.64;100664.34;2628137;36;20022;31
2021/08/12 07:39:51;;;;;;;3.35;0.70;;;;;;;16.77;59.17;100638.00;2630197;36;20856;31
2021/08/12 07:42:20;;;;;;;2.67;0.65;;;;;;;16.88;57.63;100645.41;2651359;36;20057;31
2021/08/12 07:44:50;;;;;;;3.53;0.65;;;;;;;17.11;58.30;100653.00;2613960;46;20962;31
2021/08/12 07:47:20;;;;;;;2.47;0.47;;;;;;;17.11;58.21;100623.13;2620916;46;20778;31
2021/08/12 07:49:50;;;;;;;4.90;0.80;;;;;;;17.18;57.98;100635.06;2606841;46;20060;31
2021/08/12 07:52:20;;;;;;;6.05;0.50;;;;;;;17.43;57.18;100653.13;2625927;36;20273;31
2021/08/12 07:54:50;;;;;;;2.08;0.50;;;;;;;17.52;57.41;100635.97;2640089;36;20900;31
2021/08/12 07:57:21;;;;;;;2.57;0.60;;;;;;;17.52;56.88;100620.13;2617543;54;20022;31
2021/08/12 07:59:50;;;;;;;4.82;1.13;;;;;;;17.63;56.86;100612.47;2609274;54;20298;31
2021/08/12 08:05:04;;;;;;;3.83;0.95;;;;;;;17.94;56.53;100621.41;2633584;36;20111;31
2021/08/12 08:07:47;;;;;;;3.58;0.70;;;;;;;18.09;56.41;100628.50;2622805;36;20046;31
2021/08/12 08:10:21;;;;;;;2.80;0.70;;;;;;;18.16;56.56;100637.81;2638563;36;20034;-77
2021/08/12 08:15:36;;;;;;;3.30;0.70;;;;;;;18.29;56.77;100644.09;2648482;36;20565;-79
2021/08/12 08:18:05;;;;;;;4.63;1.05;;;;;;;18.30;55.60;100635.25;2631792;36;20038;-78
2021/08/12 08:26:23;;;;;;;3.75;0.70;;;;;;;18.45;55.39;100591.25;2612682;54;20029;31
2021/08/12 08:28:52;;;;;;;3.90;0.77;;;;;;;18.63;53.99;100621.06;2613914;47;20853;31
2021/08/12 08:31:20;;;;;;;6.35;0.60;;;;;;;18.60;54.13;100600.94;2627209;39;22197;31
2021/08/12 08:33:51;;;;;;;2.95;0.88;;;;;;;18.58;54.44;100570.22;2605022;54;20093;31
2021/08/12 08:36:20;;;;;;;4.90;1.05;;;;;;;18.67;53.65;100593.50;2605869;54;20029;31
2021/08/12 08:38:51;;;;;;;4.47;1.25;;;;;;;18.76;54.26;100600.09;2607895;46;19946;31
2021/08/12 08:41:20;;;;;;;6.05;1.00;;;;;;;18.67;53.68;100582.91;2615428;54;20037;-76
2021/08/12 08:43:53;;;;;;;3.00;0.80;;;;;;;18.81;53.94;100588.28;2622065;54;20022;31
2021/08/12 08:46:24;;;;;;;3.20;0.98;;;;;;;18.75;53.61;100583.34;2604569;47;20023;31
2021/08/12 08:51:41;;;;;;;5.47;0.98;;;;;;;18.99;54.23;100596.06;2613772;54;20022;31
2021/08/12 08:54:15;;;;;;;5.68;0.80;;;;;;;19.04;53.95;100596.66;2623084;36;20903;31
2021/08/12 08:56:45;;;;;;;7.85;1.75;;;;;;;19.07;53.65;100583.25;2604376;54;20056;31
2021/08/12 08:59:15;;;;;;;3.63;0.93;;;;;;;19.12;53.73;100589.13;2604370;54;20026;31
2021/08/12 09:01:46;;;;;;;4.40;0.70;;;;;;;19.09;54.07;100579.56;2605224;47;20928;31
2021/08/12 09:04:20;;;;;;;4.43;0.90;;;;;;;19.32;53.05;100591.41;2607359;54;20876;31
2021/08/12 09:06:51;;;;;;;7.60;1.10;;;;;;;19.30;52.91;100582.69;2605313;54;20038;31
2021/08/12 09:09:20;;;;;;;6.43;1.00;;;;;;;19.37;52.84;100564.66;2609319;54;20030;31
2021/08/12 09:11:54;;;;;;;3.47;1.05;;;;;;;19.44;53.35;100569.47;2605038;46;20945;31
2021/08/12 09:17:19;;;;;;;3.25;0.85;;;;;;;19.53;53.18;100553.97;2630609;54;20050;-79
2021/08/12 09:19:59;;;;;;;3.50;0.93;;;;;;;19.57;53.53;100547.53;2630718;54;20026;-78
2021/08/12 09:22:43;;;;;;;4.60;1.10;;;;;;;19.57;53.09;100534.28;2630886;31;20512;-78
2021/08/12 09:25:11;;;;;;;3.20;0.98;;;;;;;19.54;52.55;100566.25;2648749;36;20577;-78
2021/08/12 09:27:40;;;;;;;4.18;0.80;;;;;;;19.48;51.91;100503.06;2647950;36;20034;-77
2021/08/12 09:30:17;;;;;;;3.03;0.80;;;;;;;19.57;53.03;100519.25;2646866;36;20027;-78
2021/08/12 09:32:50;;;;;;;4.75;1.23;;;;;;;19.62;52.90;100521.63;2647708;36;20035;-79
2021/08/12 09:35:27;;;;;;;3.38;0.77;;;;;;;19.70;53.15;100527.28;2647453;36;20815;-78
2021/08/12 09:38:09;;;;;;;6.45;1.00;;;;;;;19.68;53.03;100523.88;2647384;36;20026;-78
2021/08/12 09:40:37;;;;;;;4.50;1.25;;;;;;;19.67;51.89;100520.41;2647078;36;20037;-77
2021/08/12 09:43:07;;;;;;;;;;;;;;;19.84;53.46;100527.25;2629073;54;20034;-78
2021/08/12 09:45:35;;;;;;;4.97;1.23;;;;;;;19.88;51.70;100534.06;2628382;47;19950;-78
2021/08/12 09:48:16;;;;;;;6.20;1.55;;;;;;;19.99;52.30;100524.56;2674992;36;20074;-78
2021/08/12 09:50:45;;;;;;;4.88;1.05;;;;;;;20.00;51.86;100520.97;2602796;36;2004362;-78
2021/08/12 09:53:19;;;;;;;4.00;0.85;;;;;;;20.06;51.90;100525.88;2646695;36;20067;-79
2021/08/12 09:55:47;;;;;;;8.15;1.60;;;;;;;20.11;51.51;100507.84;2646308;36;20007;-78
2021/08/12 09:58:22;;;;;;;5.60;0.90;;;;;;;20.28;52.09;100520.03;2646163;36;20030;-79
2021/08/12 10:00:53;;;;;;;4.15;1.10;;;;;;;20.30;51.86;100511.00;2645972;36;20022;-78
2021/08/12 10:03:33;;;;;;;4.07;1.08;;;;;;;20.41;51.51;100511.13;2646738;36;20023;-78
2021/08/12 10:06:27;;;;;;;6.65;1.77;;;;;;;20.53;51.68;100513.94;2693147;36;20150;-78
2021/08/12 10:08:55;;;;;;;5.22;1.13;;;;;;;20.49;49.26;100500.06;2592572;54;2004384;-77
2021/08/12 10:11:23;;;;;;;5.55;1.10;;;;;;;20.56;50.28;100503.16;2646994;36;20684;-78
2021/08/12 10:13:56;;;;;;;3.38;1.23;;;;;;;20.60;50.44;100497.53;2646056;36;20542;-78
2021/08/12 10:16:32;;;;;;;6.97;1.20;;;;;;;20.64;50.80;100484.91;2646328;36;20044;-79
2021/08/12 10:19:00;;;;;;;4.75;0.82;;;;;;;20.55;49.80;100501.44;2629332;47;21192;-78
2021/08/12 10:21:27;;;;;;;3.78;1.08;;;;;;;20.58;50.67;100504.75;2629308;46;20023;-79
2021/08/12 10:24:01;;;;;;;4.82;1.20;;;;;;;20.67;50.99;100490.00;2629342;54;20070;-78
2021/08/12 10:26:34;;;;;;;5.97;1.08;;;;;;;20.72;50.07;100503.78;2629449;54;20031;-79
2021/08/12 10:29:14;;;;;;;5.47;1.00;;;;;;;20.76;51.02;100507.94;2629286;47;20039;-79
2021/08/12 10:31:44;;;;;;;5.90;1.00;;;;;;;20.77;50.07;100495.53;2646858;36;20949;-77
2021/08/12 10:34:13;;;;;;;3.95;1.10;;;;;;;20.81;49.41;100481.94;2647036;36;20082;-79
2021/08/12 10:36:45;;;;;;;3.92;0.90;;;;;;;20.87;50.65;100488.63;2646756;36;20018;-79
2021/08/12 10:39:17;;;;;;;5.22;1.02;;;;;;;20.91;49.63;100498.09;2646533;36;20030;-79
2021/08/12 10:41:45;;;;;;;2.28;0.90;;;;;;;20.94;50.01;100496.09;2646147;36;20031;-79
2021/08/12 10:44:21;;;;;;;4.53;1.02;;;;;;;21.04;50.43;100493.63;2646430;36;20704;-78
2021/08/12 10:47:01;;;;;;;4.32;0.98;;;;;;;21.07;49.67;100497.88;2633223;54;20402;-78
2021/08/12 10:49:34;;;;;;;7.32;1.30;;;;;;;21.19;49.30;100507.66;2632711;46;20018;-79
2021/08/12 10:52:10;;;;;;;5.07;1.20;;;;;;;21.23;50.00;100498.50;2655762;36;20094;-79
2021/08/12 10:54:39;;;;;;;6.15;1.40;;;;;;;21.18;48.60;100487.34;2651310;36;20027;-78
2021/08/12 10:57:12;;;;;;;3.72;0.93;;;;;;;21.30;49.51;100505.13;2650867;36;20046;-79
2021/08/12 10:59:39;;;;;;;4.80;1.10;;;;;;;21.13;49.07;100486.81;2650629;36;20030;-78
2021/08/12 11:02:29;;;;;;;3.85;1.10;;;;;;;21.37;50.27;100501.06;2651002;36;20034;-77
2021/08/12 11:05:03;;;;;;;3.72;0.73;;;;;;;21.40;49.50;100516.78;2596984;31;2004392;-79
2021/08/12 11:07:39;;;;;;;2.30;0.70;;;;;;;21.48;49.46;100482.53;2632265;54;20030;-79
2021/08/12 11:10:13;;;;;;;4.43;0.95;;;;;;;21.51;49.62;100486.81;2652808;36;21043;-78
2021/08/12 11:12:52;;;;;;;4.63;1.25;;;;;;;21.60;49.75;100511.88;2728277;36;20037;-78
2021/08/12 11:15:42;;;;;;;3.33;0.90;;;;;;;21.61;49.68;100497.63;2697240;36;20033;-78
2021/08/12 11:18:14;;;;;;;4.38;1.20;;;;;;;21.55;48.99;100495.41;2650882;36;20189;-79
2021/08/12 11:20:46;;;;;;;3.70;0.98;;;;;;;21.49;49.36;100489.56;2650923;36;20034;-78
2021/08/12 11:23:25;;;;;;;6.55;1.38;;;;;;;21.50;49.21;100491.25;2651285;36;20030;-78
2021/08/12 11:26:09;;;;;;;5.60;1.23;;;;;;;21.34;48.78;100477.38;2634801;54;20412;-78
2021/08/12 11:28:38;;;;;;;5.00;0.73;;;;;;;21.39;49.03;100499.16;2652812;36;20014;-78
2021/08/12 11:31:06;;;;;;;4.25;1.30;;;;;;;21.26;49.06;100477.03;2652562;36;20014;-78
2021/08/12 11:33:48;;;;;;;3.75;1.05;;;;;;;21.34;49.66;100473.84;2634636;54;20017;-78
2021/08/12 11:36:25;;;;;;;7.05;1.73;;;;;;;21.35;49.55;100464.94;2652935;36;20018;-77
2021/08/12 11:39:00;;;;;;;4.13;1.00;;;;;;;21.38;48.98;100475.34;2652514;36;20030;-78
2021/08/12 11:41:41;;;;;;;5.93;1.20;;;;;;;21.45;49.81;100477.47;2652661;36;20047;-78
2021/08/12 11:44:15;;;;;;;4.78;1.10;;;;;;;21.44;49.70;100482.88;2652284;36;20018;-78
2021/08/12 11:46:44;;;;;;;7.43;1.20;;;;;;;21.40;48.70;100484.91;2652507;36;20048;-78
2021/08/12 11:49:18;;;;;;;5.28;1.17;;;;;;;21.45;49.44;100488.09;2633799;54;20022;-78
2021/08/12 11:51:46;;;;;;;4.15;1.10;;;;;;;21.39;48.85;100504.47;2652418;36;20017;-78
2021/08/12 11:54:29;;;;;;;4.13;0.90;;;;;;;21.37;49.44;100482.47;2651999;36;20015;-77
2021/08/12 11:56:57;;;;;;;5.80;1.33;;;;;;;21.27;49.26;100476.06;2652194;36;20033;-78
2021/08/12 11:59:25;;;;;;;4.00;0.80;;;;;;;21.21;49.88;100481.81;2653096;36;20722;-78
2021/08/12 12:02:05;;;;;;;4.78;1.42;;;;;;;21.18;49.69;100484.69;2651814;36;20014;-78
2021/08/12 12:04:46;;;;;;;4.55;1.10;;;;;;;21.16;49.41;100481.31;2649118;36;20094;-79
2021/08/12 12:07:14;;;;;;;4.38;0.90;;;;;;;21.05;49.68;100483.88;2633645;46;20047;-79
2021/08/12 12:09:41;;;;;;;3.88;1.08;;;;;;;20.95;49.42;100468.56;2631754;47;20014;31
2021/08/12 12:12:09;;;;;;;3.40;1.00;;;;;;;20.90;49.50;100478.66;2634425;54;20030;-79